createdAt,value
2022-10-17T00:01:30.519Z,100731.73
2022-10-17T00:06:36.871Z,100737.13
2022-10-17T00:11:43.071Z,100738.42
2022-10-17T00:16:46.729Z,100741.52
2022-10-17T00:21:50.944Z,100747.20
2022-10-17T00:26:55.693Z,100748.55
2022-10-17T00:32:01.624Z,100751.39
2022-10-17T00:37:05.035Z,100752.79
2022-10-17T00:42:14.347Z,100746.63
2022-10-17T00:47:23.185Z,100740.42
2022-10-17T00:52:33.091Z,100746.27
2022-10-17T00:57:37.779Z,100748.31
2022-10-17T01:02:42.683Z,100744.17
2022-10-17T01:07:50.018Z,100745.74
2022-10-17T01:13:07.597Z,100747.71
2022-10-17T01:18:20.915Z,100742.67
2022-10-17T01:23:39.218Z,100733.41
2022-10-17T01:29:01.712Z,100721.52
2022-10-17T01:34:23.816Z,100726.94
2022-10-17T01:40:04.863Z,100741.98
2022-10-17T01:45:19.953Z,100752.34
2022-10-17T01:50:36.741Z,100756.30
2022-10-17T01:55:42.637Z,100745.23
2022-10-17T02:00:49.946Z,100741.10
2022-10-17T02:05:54.377Z,100735.11
2022-10-17T02:11:11.949Z,100732.20
2022-10-17T02:16:48.037Z,100748.44
2022-10-17T02:22:33.668Z,100760.30
2022-10-17T02:27:48.020Z,100767.35
2022-10-17T02:33:04.998Z,100773.27
2022-10-17T02:38:13.597Z,100777.58
2022-10-17T02:43:18.417Z,100768.11
2022-10-17T02:48:43.395Z,100759.23
2022-10-17T02:54:01.922Z,100777.80
2022-10-17T02:59:10.367Z,100784.20
2022-10-17T03:04:15.357Z,100784.88
2022-10-17T03:09:19.873Z,100781.24
2022-10-17T03:14:24.461Z,100778.35
2022-10-17T03:19:28.976Z,100785.40
2022-10-17T03:24:32.418Z,100791.52
2022-10-17T03:29:36.711Z,100790.73
2022-10-17T03:34:41.554Z,100796.28
2022-10-17T03:39:46.045Z,100787.36
2022-10-17T03:44:50.435Z,100785.11
2022-10-17T03:49:54.042Z,100799.90
2022-10-17T03:54:58.474Z,100803.95
2022-10-17T04:00:03.074Z,100796.98
2022-10-17T04:05:07.797Z,100801.86
2022-10-17T04:10:11.544Z,100820.15
2022-10-17T04:15:15.774Z,100832.27
2022-10-17T04:20:20.576Z,100836.73
2022-10-17T04:25:23.877Z,100828.91
2022-10-17T04:30:27.226Z,100823.34
2022-10-17T04:35:30.342Z,100819.61
2022-10-17T04:40:34.346Z,100810.73
2022-10-17T04:45:37.711Z,100808.83
2022-10-17T04:50:41.810Z,100810.11
2022-10-17T04:55:45.504Z,100808.97
2022-10-17T05:00:49.677Z,100811.74
2022-10-17T05:05:53.278Z,100814.11
2022-10-17T05:10:56.636Z,100822.82
2022-10-17T05:16:01.134Z,100837.95
2022-10-17T05:21:05.706Z,100850.12
2022-10-17T05:26:10.335Z,100859.61
2022-10-17T05:31:14.998Z,100861.53
2022-10-17T05:36:19.083Z,100876.41
2022-10-17T05:41:22.672Z,100887.05
2022-10-17T05:46:26.333Z,100885.77
2022-10-17T05:51:30.043Z,100873.15
2022-10-17T05:56:35.721Z,100872.65
2022-10-17T06:01:40.854Z,100876.86
2022-10-17T06:06:45.871Z,100874.25
2022-10-17T06:11:50.553Z,100869.55
2022-10-17T06:16:54.225Z,100871.67
2022-10-17T06:21:57.904Z,100885.55
2022-10-17T06:27:02.035Z,100898.55
2022-10-17T06:32:06.909Z,100901.95
2022-10-17T06:37:12.136Z,100908.11
2022-10-17T06:42:16.519Z,100912.95
2022-10-17T06:47:21.496Z,100922.58
2022-10-17T06:52:26.528Z,100921.90
2022-10-17T06:57:30.649Z,100913.45
2022-10-17T07:02:35.605Z,100915.41
2022-10-17T07:07:43.165Z,100912.61
2022-10-17T07:12:49.683Z,100912.41
2022-10-17T07:17:54.821Z,100913.41
2022-10-17T07:22:59.267Z,100921.94
2022-10-17T07:28:03.908Z,100934.86
2022-10-17T07:33:08.269Z,100938.48
2022-10-17T07:38:12.966Z,100949.04
2022-10-17T07:43:17.603Z,100952.24
2022-10-17T07:48:23.149Z,100955.48
2022-10-17T07:53:27.985Z,100960.89
2022-10-17T07:58:33.494Z,100965.04
2022-10-17T08:03:38.657Z,100960.86
2022-10-17T08:08:45.187Z,100967.20
2022-10-17T08:13:49.882Z,100969.34
2022-10-17T08:18:54.996Z,100969.52
2022-10-17T08:23:59.780Z,100968.39
2022-10-17T08:29:03.759Z,100966.57
2022-10-17T08:34:08.474Z,100967.79
2022-10-17T08:39:13.240Z,100966.48
2022-10-17T08:44:48.798Z,100964.99
2022-10-17T08:49:56.652Z,100964.21
2022-10-17T08:55:01.990Z,100967.55
2022-10-17T09:00:17.951Z,100968.84
2022-10-17T09:05:50.069Z,100968.25
2022-10-17T09:11:32.334Z,100962.98
2022-10-17T09:17:09.148Z,100960.69
2022-10-17T09:22:26.259Z,100952.41
2022-10-17T09:27:50.739Z,100954.46
2022-10-17T09:32:55.631Z,100956.29
2022-10-17T09:38:00.093Z,100955.90
2022-10-17T09:43:08.429Z,100958.52
2022-10-17T09:48:31.670Z,100953.74
2022-10-17T09:53:40.133Z,100954.20
2022-10-17T09:58:57.946Z,100960.53
2022-10-17T10:04:13.548Z,100951.29
2022-10-17T10:09:25.489Z,100945.40
2022-10-17T10:14:42.722Z,100939.55
2022-10-17T10:19:51.818Z,100938.44
2022-10-17T10:25:19.258Z,100933.20
2022-10-17T10:30:29.170Z,100933.59
2022-10-17T10:35:36.275Z,100933.29
2022-10-17T10:40:47.964Z,100934.88
2022-10-17T10:45:53.988Z,100937.55
2022-10-17T10:51:11.295Z,100938.52
2022-10-17T10:56:15.845Z,100938.00
2022-10-17T11:01:39.029Z,100936.33
2022-10-17T11:06:46.572Z,100938.02
2022-10-17T11:12:20.280Z,100926.85
2022-10-17T11:17:44.294Z,100923.87
2022-10-17T11:22:59.374Z,100925.27
2022-10-17T11:28:11.669Z,100931.05
2022-10-17T11:33:24.532Z,100921.54
2022-10-17T11:38:42.641Z,100909.80
2022-10-17T11:43:53.095Z,100910.92
2022-10-17T11:49:38.419Z,100907.96
2022-10-17T11:55:02.190Z,100908.34
2022-10-17T12:00:25.152Z,100907.73
2022-10-17T12:06:07.808Z,100907.04
2022-10-17T12:11:30.003Z,100912.20
2022-10-17T12:22:24.363Z,100911.27
2022-10-17T12:27:50.477Z,100905.48
2022-10-17T12:33:23.228Z,100902.52
2022-10-17T12:38:28.184Z,100900.44
2022-10-17T12:43:33.224Z,100900.82
2022-10-17T12:48:37.398Z,100892.05
2022-10-17T12:53:51.062Z,100888.65
2022-10-17T12:58:55.532Z,100884.76
2022-10-17T13:04:06.697Z,100879.96
2022-10-17T13:09:34.699Z,100873.46
2022-10-17T13:14:43.460Z,100871.15
2022-10-17T13:19:53.568Z,100871.70
2022-10-17T13:25:19.111Z,100869.35
2022-10-17T13:30:32.802Z,100870.82
2022-10-17T13:35:59.459Z,100872.92
2022-10-17T13:41:30.434Z,100862.02
2022-10-17T13:46:38.491Z,100864.50
2022-10-17T13:51:48.339Z,100869.84
2022-10-17T13:56:56.852Z,100864.88
2022-10-17T14:02:02.404Z,100851.94
2022-10-17T14:07:08.010Z,100843.58
2022-10-17T14:12:13.599Z,100837.25
2022-10-17T14:17:29.005Z,100835.01
2022-10-17T14:22:36.269Z,100828.16
2022-10-17T14:28:15.070Z,100827.28
2022-10-17T14:33:30.878Z,100829.45
2022-10-17T14:38:36.660Z,100831.71
2022-10-17T14:43:41.164Z,100831.96
2022-10-17T14:48:48.548Z,100832.31
2022-10-17T14:54:05.815Z,100834.01
2022-10-17T14:59:21.561Z,100831.98
2022-10-17T15:04:33.476Z,100834.77
2022-10-17T15:09:36.854Z,100834.86
2022-10-17T15:14:40.679Z,100828.73
2022-10-17T15:19:45.129Z,100830.63
2022-10-17T15:24:49.494Z,100826.80
2022-10-17T15:29:54.194Z,100825.86
2022-10-17T15:34:57.819Z,100826.26
2022-10-17T15:40:01.764Z,100833.56
2022-10-17T15:45:06.216Z,100834.48
2022-10-17T15:50:14.983Z,100833.52
2022-10-17T15:55:19.516Z,100832.58
2022-10-17T16:00:24.978Z,100827.04
2022-10-17T16:05:29.451Z,100821.98
2022-10-17T16:10:33.771Z,100821.80
2022-10-17T16:15:36.918Z,100817.98
2022-10-17T16:20:40.189Z,100817.84
2022-10-17T16:25:44.101Z,100814.20
2022-10-17T16:30:50.026Z,100809.23
2022-10-17T16:35:55.368Z,100809.77
2022-10-17T16:41:00.136Z,100805.56
2022-10-17T16:46:04.973Z,100806.63
2022-10-17T16:51:08.392Z,100809.52
2022-10-17T16:56:16.044Z,100813.85
2022-10-17T17:01:24.357Z,100813.80
2022-10-17T17:06:30.036Z,100811.39
2022-10-17T17:11:38.159Z,100815.20
2022-10-17T17:16:44.186Z,100812.52
2022-10-17T17:21:51.620Z,100816.90
2022-10-17T17:26:57.887Z,100817.95
2022-10-17T17:32:02.366Z,100812.63
2022-10-17T17:37:07.408Z,100813.08
2022-10-17T17:42:12.068Z,100817.58
2022-10-17T17:47:15.822Z,100816.15
2022-10-17T17:52:20.399Z,100814.75
2022-10-17T17:57:25.534Z,100808.67
2022-10-17T18:02:33.093Z,100809.17
2022-10-17T18:07:39.144Z,100806.73
2022-10-17T18:12:44.965Z,100810.66
2022-10-17T18:17:56.059Z,100815.73
2022-10-17T18:23:04.081Z,100813.91
2022-10-17T18:28:09.644Z,100814.36
2022-10-17T18:33:14.867Z,100808.18
2022-10-17T18:38:18.875Z,100806.13
2022-10-17T18:43:22.435Z,100804.02
2022-10-17T18:48:27.099Z,100798.56
2022-10-17T18:53:31.806Z,100796.20
2022-10-17T18:58:37.471Z,100797.07
2022-10-17T19:03:42.194Z,100791.14
2022-10-17T19:08:48.254Z,100785.02
2022-10-17T19:13:53.259Z,100777.79
2022-10-17T19:19:03.847Z,100776.75
2022-10-17T19:24:11.563Z,100763.06
2022-10-17T19:29:16.899Z,100761.90
2022-10-17T19:34:20.870Z,100759.94
2022-10-17T19:39:27.013Z,100764.89
2022-10-17T19:44:30.884Z,100769.71
2022-10-17T19:49:34.497Z,100775.63
2022-10-17T19:54:39.371Z,100781.63
2022-10-17T19:59:43.026Z,100780.50
2022-10-17T20:04:54.702Z,100780.25
2022-10-17T20:10:03.820Z,100780.23
2022-10-17T20:15:07.841Z,100774.55
2022-10-17T20:20:11.552Z,100767.98
2022-10-17T20:25:15.261Z,100764.23
2022-10-17T20:30:18.577Z,100765.00
2022-10-17T20:35:22.999Z,100771.23
2022-10-17T20:40:41.513Z,100774.67
2022-10-17T20:45:51.117Z,100776.54
2022-10-17T20:50:55.935Z,100773.02
2022-10-17T20:56:08.173Z,100770.34
2022-10-17T21:01:11.528Z,100761.73
2022-10-17T21:06:17.321Z,100761.08
2022-10-17T21:11:24.093Z,100757.13
2022-10-17T21:16:29.774Z,100755.16
2022-10-17T21:21:36.336Z,100762.30
2022-10-17T21:26:42.577Z,100762.83
2022-10-17T21:31:46.985Z,100764.73
2022-10-17T21:36:52.111Z,100771.65
2022-10-17T21:41:56.151Z,100774.20
2022-10-17T21:47:00.446Z,100773.27
2022-10-17T21:52:07.903Z,100772.66
2022-10-17T21:57:12.163Z,100767.79
2022-10-17T22:02:16.897Z,100763.39
2022-10-17T22:07:21.266Z,100758.73
2022-10-17T22:12:26.418Z,100767.36
2022-10-17T22:17:30.770Z,100769.30
2022-10-17T22:22:35.586Z,100769.22
2022-10-17T22:27:40.260Z,100769.84
2022-10-17T22:32:44.170Z,100768.89
2022-10-17T22:37:47.703Z,100760.14
2022-10-17T22:42:51.733Z,100762.44
2022-10-17T22:47:55.496Z,100760.73
2022-10-17T22:52:59.837Z,100764.10
2022-10-17T22:58:04.690Z,100765.39
2022-10-17T23:03:09.016Z,100762.48
2022-10-17T23:08:14.470Z,100769.94
2022-10-17T23:13:19.216Z,100778.05
2022-10-17T23:18:24.634Z,100777.85
2022-10-17T23:23:28.620Z,100772.05
2022-10-17T23:28:36.247Z,100769.32
2022-10-17T23:33:41.858Z,100770.02
2022-10-17T23:38:47.203Z,100764.77
2022-10-17T23:43:51.920Z,100762.54
2022-10-17T23:48:56.654Z,100762.15
2022-10-17T23:54:00.519Z,100762.97
2022-10-17T23:59:04.561Z,100760.69
